Latest Coastal Weather Observations for Hervey Bay

IDQ60701

Issued at 7:42 pm EST Wednesday 26 April 2017 (issued every 10 minutes, with the page automatically refreshed every 10 minutes)

About coastal observations | Map of coastal stations | Coastal observations for QLD | Marine services | Other Formats
Station Details ID: 040405 Name: HERVEY BAY AIRPORT Lat: -25.32 Lon: 152.88 Height: 12.98 m
Data from the previous 72 hours. | See also: Recent months at Hervey Bay
Date/Time
EST
Temp
°C
Wind Pressure Rain since
9am
mm
Weather Cloud Vis
km
Sea
Height
m
Swell
Dir  Spd
kts
Gust
kts
hPa Trend Height
m
Period
s
Dir
26/07:30pm 23.4 N 7 9 1011.1 - 0.0 - - 10 - - - -
26/07:00pm 23.6 N 6 8 1010.8 - 0.0 - Partly cloudy 10 - - - -
26/06:30pm 23.9 N 7 11 1010.6 - 0.0 - - 10 - - - -
26/06:00pm 23.7 N 7 10 1010.2 - 0.0 - Partly cloudy 10 - - - -
26/05:30pm 23.7 N 7 10 1010.0 - 0.0 - - 10 - - - -
26/05:00pm 24.1 N 10 14 1009.6 - 0.0 - - 10 - - - -
26/04:30pm 24.1 N 10 13 1009.6 - 0.0 - - 10 - - - -
26/04:00pm 24.6 N 11 16 1009.7 - 0.0 - - 10 - - - -
26/03:30pm 24.9 N 11 15 1009.9 - 0.0 - - 10 - - - -
26/03:00pm 25.2 N 10 15 1010.1 - 0.0 - - 10 - - - -
26/02:30pm 25.6 N 11 16 1010.2 - 0.0 - - 10 - - - -
26/02:00pm 25.8 N 11 15 1010.4 - 0.0 - - 10 - - - -
26/01:30pm 25.9 N 10 14 1010.6 - 0.0 - - 10 - - - -
26/01:00pm 26.1 N 11 14 1011.2 - 0.0 - - 10 - - - -
26/12:30pm 26.3 N 10 15 1011.8 - 0.0 - - 10 - - - -
26/12:00pm 25.8 N 9 13 1012.3 - 0.0 - - 10 - - - -
26/11:30am 26.0 N 8 12 1013.1 - 0.0 - - 10 - - - -
26/11:00am 26.0 N 8 13 1013.5 - 0.0 - Partly cloudy 10 - - - -
26/10:30am 25.6 NNW 6 10 1014.0 - 0.0 - - 10 - - - -
26/10:00am 25.5 NNW 7 10 1014.3 - 0.0 - Partly cloudy 10 - - - -
26/09:30am 25.2 NW 4 8 1014.3 - 0.0 - Partly cloudy 10 - - - -
26/09:00am 23.4 NW 2 5 1014.4 - 0.2 - - 10 - - - -
26/08:30am 22.0 WSW 4 5 1014.5 - 0.2 - - 10 - - - -
26/08:00am 20.6 SW 3 4 1014.5 - 0.2 - - 10 - - - -
26/07:30am 19.1 SSW 1 3 1014.5 - 0.2 - - 10 - - - -
26/07:00am 18.0 SSW 3 4 1014.5 - 0.2 - - 10 - - - -
26/06:30am 17.1 SW 2 5 1014.4 - 0.2 - Partly cloudy 10 - - - -
26/06:00am 16.2 SSW 3 5 1014.1 - 0.2 - Partly cloudy 10 - - - -
26/05:30am 15.9 CALM 0 0 1014.0 - 0.2 - - 10 - - - -
26/05:00am 16.2 CALM 0 0 1013.9 - 0.2 - - 10 - - - -
26/04:30am 15.9 SW 3 4 1013.9 - 0.2 - - 10 - - - -
26/04:00am 16.1 CALM 0 0 1013.7 - 0.2 - - 10 - - - -
26/03:30am 16.0 CALM 0 0 1013.8 - 0.2 - - 10 - - - -
26/03:00am 16.3 CALM 0 0 1013.6 - 0.2 - - 10 - - - -
26/02:30am 16.4 CALM 0 0 1013.9 - 0.2 - - 10 - - - -
26/02:00am 16.5 CALM 0 0 1014.0 - 0.2 - - 10 - - - -
26/01:30am 16.6 CALM 0 0 1014.2 - 0.2 - - 10 - - - -
26/01:00am 16.6 CALM 0 0 1014.5 - 0.2 - - 10 - - - -
26/12:30am 16.9 CALM 0 0 1014.7 - 0.2 - - 10 - - - -
26/12:00am 16.9 CALM 0 0 1015.1 - 0.2 - - 10 - - - -
 
Date/Time
EST
Temp
°C
Wind Pressure Rain since
9am
mm
Weather Cloud Vis
km
Sea
Height
m
Swell
Dir  Spd
kts
Gust
kts
hPa Trend Height
m
Period
s
Dir
25/11:30pm 17.1 CALM 0 0 1015.2 - 0.2 - - 10 - - - -
25/11:00pm 17.4 CALM 0 0 1015.4 - 0.2 - - 10 - - - -
25/10:30pm 17.5 CALM 0 0 1015.6 - 0.2 - - 10 - - - -
25/10:00pm 17.8 CALM 0 0 1016.1 - 0.2 - - 10 - - - -
25/09:30pm 17.9 CALM 0 0 1016.3 - 0.2 - - 10 - - - -
25/09:00pm 17.9 CALM 0 0 1016.2 - 0.2 - - 10 - - - -
25/08:30pm 18.3 CALM 0 0 1016.1 - 0.2 - - 10 - - - -
25/08:00pm 18.7 CALM 0 0 1016.0 - 0.2 - - 10 - - - -
25/07:30pm 19.3 CALM 0 0 1015.8 - 0.2 - - 10 - - - -
25/07:00pm 20.1 E 4 4 1015.6 - 0.2 - - 10 - - - -
25/06:30pm 21.9 E 5 7 1015.4 - 0.2 - - 10 - - - -
25/06:00pm 22.7 E 5 7 1015.2 - 0.2 - - 10 - - - -
25/05:30pm 23.1 ESE 7 9 1015.1 - 0.2 - - 10 - - - -
25/05:00pm 24.0 ESE 8 11 1015.0 - 0.2 - - 10 - - - -
25/04:30pm 24.8 E 9 11 1014.8 - 0.2 - - 10 - - - -
25/04:00pm 25.4 ESE 10 14 1014.8 - 0.2 - - 10 - - - -
25/03:30pm 25.6 ESE 10 13 1014.9 - 0.2 - - 10 - - - -
25/03:00pm 26.0 ESE 11 14 1014.8 - 0.2 - - 10 - - - -
25/02:30pm 26.3 E 10 13 1014.9 - 0.2 - - 10 - - - -
25/02:00pm 26.9 E 9 13 1015.1 - 0.2 - - 10 - - - -
25/01:30pm 26.6 ESE 9 13 1015.2 - 0.2 - - 10 - - - -
25/01:00pm 26.1 ESE 8 12 1015.6 - 0.2 - - 10 - - - -
25/12:30pm 26.1 SE 9 12 1016.0 - 0.2 - - 10 - - - -
25/12:00pm 26.1 ESE 8 11 1016.6 - 0.2 - - 10 - - - -
25/11:30am 25.8 ESE 8 11 1017.0 - 0.2 - - 10 - - - -
25/11:00am 25.6 SE 7 11 1017.5 - 0.2 - Partly cloudy 10 - - - -
25/10:30am 25.3 SE 5 9 1018.2 - 0.2 - Partly cloudy 10 - - - -
25/10:00am 24.7 S 5 7 1018.3 - 0.0 - - 10 - - - -
25/09:30am 23.8 SSW 7 10 1018.6 - 0.0 - - 10 - - - -
25/09:00am 23.7 SSE 6 9 1018.5 - 0.2 - - 10 - - - -
25/08:30am 21.8 SSW 5 7 1018.4 - 0.2 - - 10 - - - -
25/08:00am 20.0 SSW 6 8 1018.3 - 0.2 - - 10 - - - -
25/07:30am 18.0 SSW 6 7 1018.1 - 0.2 - - 10 - - - -
25/07:00am 17.1 SSW 7 9 1017.9 - 0.2 - - 10 - - - -
25/06:30am 16.7 SW 7 10 1017.9 - 0.2 - - 10 - - - -
25/06:00am 16.6 SW 6 8 1017.6 - 0.2 - - 10 - - - -
25/05:30am 16.6 SW 5 8 1017.4 - 0.2 - - 10 - - - -
25/05:00am 16.6 SW 7 9 1017.2 - 0.2 - - 10 - - - -
25/04:30am 16.8 SSW 7 11 1017.0 - 0.2 - - 10 - - - -
25/04:00am 16.9 SW 7 11 1017.1 - 0.2 - - 10 - - - -
25/03:30am 17.3 SW 7 9 1017.0 - 0.2 - - 10 - - - -
25/03:00am 17.1 SW 6 8 1017.1 - 0.2 - - 10 - - - -
25/02:30am 17.3 SW 7 8 1017.1 - 0.2 - Partly cloudy 10 - - - -
25/02:00am 17.6 SW 6 8 1017.2 - 0.2 - - 10 - - - -
25/01:30am 17.6 SW 6 7 1017.5 - 0.2 - - 10 - - - -
25/01:00am 17.6 SSW 5 6 1017.8 - 0.2 - - 10 - - - -
25/12:30am 18.0 SSW 5 6 1018.2 - 0.2 - - 10 - - - -
25/12:00am 18.2 SSW 5 6 1018.5 - 0.2 - - 10 - - - -
 
Date/Time
EST
Temp
°C
Wind Pressure Rain since
9am
mm
Weather Cloud Vis
km
Sea
Height
m
Swell
Dir  Spd
kts
Gust
kts
hPa Trend Height
m
Period
s
Dir
24/11:30pm 18.2 SSW 5 6 1018.7 - 0.2 - - 10 - - - -
24/11:00pm 18.4 SSW 4 5 1019.0 - 0.2 - - 10 - - - -
24/10:30pm 18.5 SSW 5 6 1019.0 - 0.2 - - 10 - - - -
24/10:00pm 18.6 SSW 5 6 1019.2 - 0.2 - - 10 - - - -
24/09:30pm 18.6 SSW 5 6 1019.3 - 0.2 - - 10 - - - -
24/09:00pm 18.6 SSW 5 6 1019.4 - 0.2 - - 10 - - - -
24/08:30pm 18.8 SW 4 5 1019.5 - 0.2 - - 10 - - - -
24/08:00pm 19.3 SSW 3 4 1019.3 - 0.2 - - 10 - - - -
24/07:30pm 20.0 S 4 5 1019.1 - 0.2 - Partly cloudy 10 - - - -
24/07:00pm 20.5 S 4 6 1018.8 - 0.2 - - 10 - - - -
24/06:30pm 21.1 S 5 8 1018.5 - 0.2 - - 10 - - - -
24/06:00pm 21.7 SSE 5 6 1018.3 - 0.2 - - 10 - - - -
24/05:30pm 22.5 SE 7 12 1018.0 - 0.2 - - 10 - - - -
24/05:00pm 23.3 SE 7 12 1017.7 - 0.2 - - 10 - - - -
24/04:30pm 23.9 SE 9 13 1017.7 - 0.2 - - 10 - - - -
24/04:00pm 24.5 SSE 9 13 1017.6 - 0.2 - - 10 - - - -
24/03:30pm 24.4 SE 8 13 1017.3 - 0.2 - Partly cloudy 10 - - - -
24/03:00pm 25.0 SE 10 19 1017.1 - 0.2 - - 10 - - - -
24/02:30pm 24.9 SSE 9 16 1017.1 - 0.2 - Partly cloudy 10 - - - -
24/02:00pm 24.5 SE 10 17 1017.5 - 0.2 - Cloudy 10 - - - -
24/01:30pm 25.1 SSE 9 15 1017.7 - 0.2 - Partly cloudy 10 - - - -
24/01:00pm 24.7 S 9 15 1017.8 - 0.2 - Partly cloudy 10 - - - -
24/12:30pm 24.4 SSE 8 11 1018.4 - 0.2 - Partly cloudy 10 - - - -
24/12:00pm 24.1 SSE 7 11 1018.7 - 0.2 - Cloudy 10 - - - -
24/11:30am 25.4 SSE 9 14 1019.1 - 0.2 - Partly cloudy 10 - - - -
24/11:00am 25.3 S 8 11 1019.4 - 0.2 - Partly cloudy 10 - - - -
24/10:30am 24.5 S 8 13 1019.7 - 0.2 - Partly cloudy 10 - - - -
24/10:00am 24.2 S 8 13 1020.1 - 0.0 - - 10 - - - -
24/09:30am 23.2 SSW 9 12 1020.3 - 0.0 - - 10 - - - -
24/09:00am 22.4 SSW 8 11 1020.2 - 1.4 - - 10 - - - -
24/08:30am 21.5 SW 8 10 1020.0 - 1.4 - - 10 - - - -
24/08:00am 20.2 SSW 7 10 1019.8 - 1.4 - - 10 - - - -
24/07:30am 18.5 SSW 7 9 1019.6 - 1.4 - - 10 - - - -
24/07:00am 17.9 SW 7 10 1019.4 - 1.4 - - 10 - - - -
24/06:30am 17.3 SW 5 8 1019.3 - 1.4 - - 10 - - - -
24/06:00am 17.1 SSW 6 8 1018.9 - 1.4 - - 10 - - - -
24/05:30am 17.2 SSW 6 8 1018.8 - 1.4 - - 10 - - - -
24/05:00am 17.4 SW 6 9 1018.5 - 1.4 - Partly cloudy 10 - - - -
24/04:30am 17.3 SSW 5 7 1018.4 - 1.4 - - 10 - - - -
24/04:00am 17.6 SW 7 9 1018.4 - 1.4 - - 10 - - - -
24/03:30am 17.4 SW 7 9 1018.5 - 1.4 - - 10 - - - -
24/03:00am 17.6 SW 6 8 1018.7 - 1.4 - Mostly clear 10 - - - -
24/02:30am 17.5 SSW 6 7 1018.8 - 1.4 - - 10 - - - -
24/02:00am 17.7 SSW 6 8 1019.1 - 1.4 - - 10 - - - -
24/01:30am 18.2 SW 5 7 1019.5 - 1.4 - - 10 - - - -
24/01:00am 18.0 SSW 5 8 1019.6 - 1.4 - - 10 - - - -
24/12:30am 18.1 SSW 7 8 1019.8 - 1.4 - - 10 - - - -
24/12:00am 18.1 SW 6 7 1020.2 - 1.4 - Partly cloudy 10 - - - -
 
Date/Time
EST
Temp
°C
Wind Pressure Rain since
9am
mm
Weather Cloud Vis
km
Sea
Height
m
Swell
Dir  Spd
kts
Gust
kts
hPa Trend Height
m
Period
s
Dir
23/11:30pm 18.3 SSW 6 8 1020.4 - 1.4 - - 10 - - - -
23/11:00pm 18.4 SSW 6 8 1020.4 - 1.4 - - 10 - - - -
23/10:30pm 18.5 SSW 5 6 1020.7 - 1.4 - - 10 - - - -
23/10:00pm 18.8 SW 4 6 1020.9 - 1.4 - - 10 - - - -
23/09:30pm 19.0 SSW 5 6 1020.9 - 1.4 - - 10 - - - -
23/09:00pm 19.0 SSW 4 4 1020.9 - 1.4 - Mostly cloudy 10 - - - -
23/08:30pm 19.1 SW 3 4 1020.9 - 1.4 - - 10 - - - -
23/08:00pm 19.2 SSW 4 4 1020.5 - 1.4 - - 10 - - - -

Other Formats:

Comma delimited format used in spreadsheet applications
http://www.bom.gov.au/fwo/IDQ60701/IDQ60701.95565.axf

JavaScript Object Notation format (JSON) in row-major order
http://www.bom.gov.au/fwo/IDQ60701/IDQ60701.95565.json